createdAt,value
2022-07-30T00:01:41.013Z,1.77
2022-07-30T00:04:08.344Z,2.70
2022-07-30T00:06:37.980Z,1.45
2022-07-30T00:09:05.506Z,2.50
2022-07-30T00:11:32.795Z,3.13
2022-07-30T00:14:00.268Z,3.03
2022-07-30T00:16:27.890Z,1.52
2022-07-30T00:18:55.230Z,3.05
2022-07-30T00:21:35.614Z,4.40
2022-07-30T00:24:04.756Z,1.70
2022-07-30T00:26:32.122Z,1.90
2022-07-30T00:29:01.759Z,1.60
2022-07-30T00:31:29.454Z,1.60
2022-07-30T00:33:57.544Z,1.77
2022-07-30T00:36:26.407Z,2.65
2022-07-30T00:38:53.796Z,2.78
2022-07-30T00:41:23.421Z,2.08
2022-07-30T00:43:50.735Z,2.63
2022-07-30T00:46:18.447Z,2.63
2022-07-30T00:48:46.579Z,2.65
2022-07-30T00:51:13.995Z,2.30
2022-07-30T00:53:42.703Z,1.63
2022-07-30T00:56:10.078Z,2.20
2022-07-30T00:58:37.363Z,2.08
2022-07-30T01:01:04.694Z,2.50
2022-07-30T01:03:32.734Z,5.20
2022-07-30T01:06:02.251Z,3.15
2022-07-30T01:08:29.902Z,1.88
2022-07-30T01:10:57.256Z,1.42
2022-07-30T01:13:25.207Z,2.03
2022-07-30T01:15:52.506Z,1.75
2022-07-30T01:18:21.047Z,2.90
2022-07-30T01:21:05.945Z,1.92
2022-07-30T01:23:45.131Z,2.00
2022-07-30T01:26:17.686Z,1.63
2022-07-30T01:28:55.343Z,2.58
2022-07-30T01:31:26.280Z,1.40
2022-07-30T01:33:59.741Z,1.23
2022-07-30T01:36:29.067Z,1.35
2022-07-30T01:39:00.431Z,2.45
2022-07-30T01:41:29.609Z,2.08
2022-07-30T01:43:58.391Z,1.38
2022-07-30T01:46:27.577Z,2.50
2022-07-30T01:48:58.352Z,1.33
2022-07-30T01:51:28.018Z,1.67
2022-07-30T01:54:10.172Z,2.30
2022-07-30T01:56:39.438Z,1.25
2022-07-30T01:59:10.333Z,1.55
2022-07-30T02:01:38.109Z,1.80
2022-07-30T02:04:05.782Z,1.85
2022-07-30T02:06:49.089Z,1.63
2022-07-30T02:09:22.752Z,1.60
2022-07-30T02:12:10.831Z,0.85
2022-07-30T02:15:11.278Z,2.72
2022-07-30T02:17:50.411Z,1.15
2022-07-30T02:20:19.324Z,0.90
2022-07-30T02:22:57.386Z,1.42
2022-07-30T02:25:26.506Z,1.23
2022-07-30T02:28:00.819Z,1.48
2022-07-30T02:30:32.057Z,1.23
2022-07-30T02:33:05.789Z,1.70
2022-07-30T02:35:34.213Z,2.90
2022-07-30T02:38:03.225Z,2.47
2022-07-30T02:40:32.134Z,2.97
2022-07-30T02:43:01.748Z,1.90
2022-07-30T02:45:31.298Z,3.10
2022-07-30T02:48:02.686Z,2.85
2022-07-30T02:50:31.476Z,2.35
2022-07-30T02:53:01.393Z,2.72
2022-07-30T02:55:32.642Z,1.33
2022-07-30T02:58:03.149Z,1.45
2022-07-30T03:00:34.320Z,1.88
2022-07-30T03:03:02.707Z,2.95
2022-07-30T03:05:30.566Z,1.77
2022-07-30T03:08:01.196Z,1.48
2022-07-30T03:10:30.155Z,2.33
2022-07-30T03:13:00.155Z,2.85
2022-07-30T03:15:30.416Z,1.20
2022-07-30T03:18:00.182Z,1.75
2022-07-30T03:20:34.257Z,1.63
2022-07-30T03:23:03.844Z,1.88
2022-07-30T03:25:32.958Z,2.13
2022-07-30T03:28:02.895Z,4.05
2022-07-30T03:30:32.130Z,1.90
2022-07-30T03:33:00.046Z,3.92
2022-07-30T03:35:31.181Z,1.27
2022-07-30T03:38:00.763Z,2.53
2022-07-30T03:40:30.190Z,2.08
2022-07-30T03:42:58.263Z,3.55
2022-07-30T03:45:27.247Z,1.85
2022-07-30T03:48:02.881Z,1.60
2022-07-30T03:50:35.766Z,2.13
2022-07-30T03:53:07.938Z,1.73
2022-07-30T03:55:46.556Z,1.63
2022-07-30T03:58:35.956Z,2.40
2022-07-30T04:01:06.250Z,2.33
2022-07-30T04:03:34.439Z,2.03
2022-07-30T04:06:04.736Z,1.80
2022-07-30T04:08:32.305Z,2.70
2022-07-30T04:11:00.677Z,2.70
2022-07-30T04:13:59.490Z,1.75
2022-07-30T04:16:54.473Z,3.05
2022-07-30T04:19:46.786Z,3.33
2022-07-30T04:22:17.485Z,5.70
2022-07-30T04:24:45.540Z,3.13
2022-07-30T04:27:13.966Z,3.22
2022-07-30T04:29:41.702Z,5.43
2022-07-30T04:32:09.927Z,2.00
2022-07-30T04:34:56.573Z,2.92
2022-07-30T04:37:44.140Z,2.88
2022-07-30T04:40:12.608Z,3.42
2022-07-30T04:42:41.450Z,2.75
2022-07-30T04:45:11.901Z,2.92
2022-07-30T04:47:57.261Z,2.72
2022-07-30T04:50:29.560Z,3.28
2022-07-30T04:52:59.395Z,3.38
2022-07-30T04:55:35.304Z,3.08
2022-07-30T04:58:15.962Z,1.95
2022-07-30T05:00:44.604Z,1.98
2022-07-30T05:03:16.776Z,2.63
2022-07-30T05:05:56.784Z,1.55
2022-07-30T05:08:26.565Z,1.85
2022-07-30T05:10:55.572Z,2.50
2022-07-30T05:13:23.607Z,1.60
2022-07-30T05:16:03.890Z,2.10
2022-07-30T05:18:31.826Z,2.00
2022-07-30T05:20:59.389Z,2.08
2022-07-30T05:23:31.148Z,3.47
2022-07-30T05:26:08.660Z,2.22
2022-07-30T05:28:52.131Z,1.75
2022-07-30T05:31:26.619Z,2.72
2022-07-30T05:34:03.375Z,2.58
2022-07-30T05:36:43.840Z,3.65
2022-07-30T05:39:17.366Z,2.55
2022-07-30T05:42:05.126Z,2.25
2022-07-30T05:44:46.892Z,1.88
2022-07-30T05:47:14.333Z,3.30
2022-07-30T05:49:47.332Z,3.80
2022-07-30T05:52:15.797Z,1.70
2022-07-30T05:54:44.017Z,2.28
2022-07-30T05:57:30.824Z,2.13
2022-07-30T05:59:58.368Z,2.03
2022-07-30T06:02:44.305Z,2.15
2022-07-30T06:05:26.520Z,1.63
2022-07-30T06:07:56.657Z,1.85
2022-07-30T06:10:26.145Z,2.38
2022-07-30T06:12:54.215Z,1.80
2022-07-30T06:15:25.641Z,1.95
2022-07-30T06:18:01.648Z,3.13
2022-07-30T06:20:43.722Z,3.10
2022-07-30T06:23:17.395Z,2.05
2022-07-30T06:26:04.008Z,4.65
2022-07-30T06:28:40.274Z,4.20
2022-07-30T06:31:17.180Z,3.00
2022-07-30T06:33:44.723Z,5.15
2022-07-30T06:36:14.101Z,3.55
2022-07-30T06:38:54.797Z,3.90
2022-07-30T06:41:33.949Z,5.18
2022-07-30T06:44:03.637Z,4.60
2022-07-30T06:46:53.996Z,2.63
2022-07-30T06:49:25.536Z,3.00
2022-07-30T06:51:53.363Z,5.18
2022-07-30T06:54:21.429Z,1.92
2022-07-30T06:57:16.450Z,2.10
2022-07-30T06:59:56.658Z,5.47
2022-07-30T07:02:53.231Z,4.47
2022-07-30T07:05:29.681Z,4.13
2022-07-30T07:07:59.748Z,2.65
2022-07-30T07:10:34.120Z,3.90
2022-07-30T07:13:14.026Z,3.45
2022-07-30T07:15:42.028Z,3.22
2022-07-30T07:18:15.629Z,2.03
2022-07-30T07:20:50.884Z,2.42
2022-07-30T07:23:21.688Z,3.83
2022-07-30T07:25:53.649Z,2.67
2022-07-30T07:28:22.792Z,4.00
2022-07-30T07:31:01.605Z,3.42
2022-07-30T07:33:31.017Z,5.88
2022-07-30T07:35:58.810Z,3.80
2022-07-30T07:38:32.176Z,3.88
2022-07-30T07:41:00.335Z,3.13
2022-07-30T07:43:28.581Z,2.38
2022-07-30T07:45:58.840Z,3.60
2022-07-30T07:48:29.815Z,2.20
2022-07-30T07:51:15.740Z,3.38
2022-07-30T07:54:20.402Z,2.50
2022-07-30T07:56:57.674Z,3.10
2022-07-30T07:59:43.732Z,2.95
2022-07-30T08:02:19.956Z,1.75
2022-07-30T08:05:13.816Z,1.73
2022-07-30T08:07:47.312Z,2.55
2022-07-30T08:10:32.963Z,2.13
2022-07-30T08:16:03.741Z,2.17
2022-07-30T08:19:09.400Z,1.95
2022-07-30T08:21:59.907Z,3.42
2022-07-30T08:24:32.017Z,3.33
2022-07-30T08:27:00.299Z,2.22
2022-07-30T08:29:29.616Z,5.25
2022-07-30T08:31:57.453Z,3.47
2022-07-30T08:34:26.879Z,1.65
2022-07-30T08:39:40.206Z,2.00
2022-07-30T08:42:12.956Z,1.35
2022-07-30T08:44:45.102Z,3.08
2022-07-30T08:47:19.632Z,1.88
2022-07-30T08:50:08.116Z,1.80
2022-07-30T08:52:39.818Z,2.72
2022-07-30T08:55:10.075Z,1.70
2022-07-30T08:57:40.718Z,2.00
2022-07-30T09:00:09.141Z,1.77
2022-07-30T09:05:20.038Z,2.33
2022-07-30T09:07:48.310Z,1.38
2022-07-30T09:10:25.123Z,1.50
2022-07-30T09:12:55.267Z,1.45
2022-07-30T09:15:25.735Z,1.95
2022-07-30T09:18:03.138Z,1.30
2022-07-30T09:23:19.668Z,1.35
2022-07-30T09:32:51.445Z,0.88
2022-07-30T09:35:49.418Z,1.73
2022-07-30T09:38:43.777Z,3.65
2022-07-30T09:44:27.898Z,0.95
2022-07-30T09:46:59.830Z,2.55
2022-07-30T09:49:33.586Z,2.40
2022-07-30T09:52:03.918Z,2.45
2022-07-30T09:54:52.984Z,1.83
2022-07-30T09:57:28.572Z,2.60
2022-07-30T10:00:28.417Z,1.48
2022-07-30T10:03:33.599Z,1.33
2022-07-30T10:06:38.152Z,1.67
2022-07-30T10:09:47.040Z,2.83
2022-07-30T10:12:18.749Z,1.50
2022-07-30T10:14:54.636Z,1.35
2022-07-30T10:17:23.455Z,0.90
2022-07-30T10:20:13.184Z,0.80
2022-07-30T10:22:59.345Z,1.00
2022-07-30T10:26:00.971Z,1.02
2022-07-30T10:29:01.783Z,0.70
2022-07-30T10:34:14.103Z,0.52
2022-07-30T10:36:43.955Z,1.00
2022-07-30T10:42:31.912Z,1.50
2022-07-30T10:48:25.171Z,0.98
2022-07-30T10:50:56.323Z,0.75
2022-07-30T10:53:40.564Z,0.60
2022-07-30T10:56:22.491Z,0.70
2022-07-30T10:59:07.964Z,0.90
2022-07-30T11:01:53.627Z,2.25
2022-07-30T11:10:51.209Z,1.40
2022-07-30T11:13:18.894Z,0.95
2022-07-30T11:16:02.811Z,0.70
2022-07-30T11:22:25.654Z,0.70
2022-07-30T11:25:06.651Z,1.30
2022-07-30T11:27:51.837Z,0.50
2022-07-30T11:33:12.336Z,0.40
2022-07-30T11:35:40.564Z,0.40
2022-07-30T11:38:22.606Z,0.40
2022-07-30T11:40:50.193Z,0.47
2022-07-30T11:43:35.815Z,1.17
2022-07-30T11:46:29.248Z,0.43
2022-07-30T11:49:11.038Z,0.60
2022-07-30T11:51:43.320Z,0.40
2022-07-30T11:54:11.957Z,0.40
2022-07-30T11:56:54.518Z,0.50
2022-07-30T11:59:21.992Z,0.60
2022-07-30T12:02:00.120Z,0.50
2022-07-30T12:04:28.905Z,0.40
2022-07-30T12:06:56.550Z,0.63
2022-07-30T12:12:27.941Z,0.40
2022-07-30T12:15:06.021Z,0.40
2022-07-30T12:17:47.488Z,0.40
2022-07-30T12:20:22.279Z,0.60
2022-07-30T12:25:40.685Z,0.40
2022-07-30T12:28:22.793Z,0.40
2022-07-30T12:30:52.018Z,0.30
2022-07-30T12:33:20.827Z,0.40
2022-07-30T12:35:59.436Z,0.40
2022-07-30T12:38:33.942Z,0.63
2022-07-30T12:41:06.419Z,0.30
2022-07-30T12:43:46.102Z,0.30
2022-07-30T12:46:16.795Z,0.43
2022-07-30T12:49:12.189Z,0.47
2022-07-30T12:54:36.600Z,0.50
2022-07-30T13:02:36.742Z,0.40
2022-07-30T13:05:11.589Z,0.50
2022-07-30T13:07:59.952Z,0.30
2022-07-30T13:10:31.232Z,0.50
2022-07-30T13:13:02.670Z,0.55
2022-07-30T13:15:30.810Z,0.50
2022-07-30T13:17:58.235Z,0.50
2022-07-30T13:23:15.667Z,0.55
2022-07-30T13:25:44.046Z,0.40
2022-07-30T13:28:13.812Z,0.30
2022-07-30T13:30:42.724Z,0.50
2022-07-30T13:33:10.073Z,1.63
2022-07-30T13:41:05.753Z,0.70
2022-07-30T13:46:15.628Z,0.60
2022-07-30T13:48:43.352Z,0.47
2022-07-30T13:51:10.785Z,1.60
2022-07-30T13:53:38.144Z,1.35
2022-07-30T13:56:06.056Z,0.77
2022-07-30T14:01:23.236Z,0.82
2022-07-30T14:09:17.556Z,0.65
2022-07-30T14:11:50.322Z,0.88
2022-07-30T14:14:17.740Z,0.60
2022-07-30T14:19:34.370Z,0.70
2022-07-30T14:22:01.978Z,0.88
2022-07-30T14:27:12.270Z,0.60
2022-07-30T14:32:21.770Z,1.30
2022-07-30T14:34:51.247Z,0.80
2022-07-30T14:37:23.009Z,0.60
2022-07-30T14:42:38.778Z,0.82
2022-07-30T14:45:08.113Z,0.57
2022-07-30T14:47:41.004Z,1.40
2022-07-30T14:50:17.905Z,0.63
2022-07-30T14:52:57.862Z,1.05
2022-07-30T14:58:08.350Z,1.65
2022-07-30T15:00:48.588Z,1.23
2022-07-30T15:03:16.843Z,1.65
2022-07-30T15:05:48.974Z,1.00
2022-07-30T15:08:19.356Z,0.63
2022-07-30T15:10:47.268Z,1.23
2022-07-30T15:13:17.885Z,0.80
2022-07-30T15:15:50.555Z,0.70
2022-07-30T15:18:17.781Z,1.00
2022-07-30T15:20:46.486Z,0.68
2022-07-30T15:23:14.540Z,1.50
2022-07-30T15:25:42.649Z,0.47
2022-07-30T15:28:14.858Z,0.85
2022-07-30T15:30:42.943Z,0.82
2022-07-30T15:33:10.225Z,0.63
2022-07-30T15:35:37.780Z,1.00
2022-07-30T15:38:05.801Z,1.05
2022-07-30T15:40:38.026Z,0.90
2022-07-30T15:43:10.057Z,0.90
2022-07-30T15:45:51.091Z,1.60
2022-07-30T15:51:12.774Z,1.73
2022-07-30T15:53:45.980Z,1.25
2022-07-30T15:56:13.987Z,0.85
2022-07-30T16:01:23.508Z,3.20
2022-07-30T16:03:52.975Z,2.58
2022-07-30T16:06:23.043Z,1.67
2022-07-30T16:08:56.169Z,1.63
2022-07-30T16:16:50.766Z,1.42
2022-07-30T16:19:18.236Z,1.15
2022-07-30T16:21:46.062Z,1.27
2022-07-30T16:24:13.965Z,0.70
2022-07-30T16:26:41.805Z,1.48
2022-07-30T16:29:13.689Z,0.50
2022-07-30T16:31:41.729Z,1.65
2022-07-30T16:34:08.975Z,0.73
2022-07-30T16:36:36.486Z,1.20
2022-07-30T16:39:04.758Z,0.60
2022-07-30T16:41:32.036Z,0.60
2022-07-30T16:46:42.000Z,0.85
2022-07-30T16:49:11.683Z,2.35
2022-07-30T16:51:40.059Z,1.17
2022-07-30T16:54:08.034Z,0.57
2022-07-30T16:56:35.873Z,1.10
2022-07-30T16:59:05.366Z,1.27
2022-07-30T17:01:33.696Z,1.13
2022-07-30T17:04:01.168Z,1.02
2022-07-30T17:06:30.184Z,1.45
2022-07-30T17:09:07.512Z,1.25
2022-07-30T17:11:47.281Z,2.83
2022-07-30T17:14:22.810Z,1.48
2022-07-30T17:16:51.045Z,1.27
2022-07-30T17:19:18.593Z,2.35
2022-07-30T17:24:29.258Z,1.35
2022-07-30T17:26:57.156Z,1.20
2022-07-30T17:29:25.227Z,1.80
2022-07-30T17:31:59.268Z,1.77
2022-07-30T17:38:04.309Z,0.93
2022-07-30T17:40:36.850Z,0.85
2022-07-30T17:43:05.620Z,0.82
2022-07-30T17:45:35.487Z,1.70
2022-07-30T17:48:04.061Z,1.52
2022-07-30T17:50:32.561Z,1.08
2022-07-30T17:53:03.558Z,1.27
2022-07-30T17:55:35.456Z,1.73
2022-07-30T17:58:06.457Z,2.13
2022-07-30T18:00:35.805Z,3.65
2022-07-30T18:03:04.287Z,1.25
2022-07-30T18:05:56.389Z,1.30
2022-07-30T18:08:25.265Z,2.08
2022-07-30T18:10:53.994Z,1.73
2022-07-30T18:13:26.091Z,2.78
2022-07-30T18:15:57.659Z,1.35
2022-07-30T18:18:25.443Z,1.90
2022-07-30T18:20:53.608Z,1.52
2022-07-30T18:23:21.593Z,0.70
2022-07-30T18:25:53.010Z,2.35
2022-07-30T18:28:22.478Z,1.63
2022-07-30T18:36:17.568Z,1.27
2022-07-30T18:48:17.602Z,1.85
2022-07-30T18:50:47.481Z,0.73
2022-07-30T18:53:25.297Z,1.75
2022-07-30T18:56:11.595Z,1.17
2022-07-30T18:58:39.476Z,1.25
2022-07-30T19:01:06.955Z,1.15
2022-07-30T19:09:17.746Z,0.60
2022-07-30T19:11:46.818Z,1.65
2022-07-30T19:17:46.569Z,1.42
2022-07-30T19:20:55.203Z,2.80
2022-07-30T19:23:43.153Z,1.75
2022-07-30T19:35:13.301Z,2.92
2022-07-30T19:37:42.072Z,1.63
2022-07-30T19:40:10.263Z,1.60
2022-07-30T19:42:42.527Z,1.80
2022-07-30T19:45:16.142Z,1.58
2022-07-30T19:47:44.647Z,2.50
2022-07-30T20:07:54.892Z,1.98
2022-07-30T20:10:23.636Z,2.35
2022-07-30T20:12:51.205Z,4.75
2022-07-30T20:15:20.447Z,1.88
2022-07-30T20:17:56.877Z,2.85
2022-07-30T20:20:27.121Z,2.72
2022-07-30T20:22:54.773Z,3.47
2022-07-30T20:25:22.420Z,1.60
2022-07-30T20:30:31.875Z,3.28
2022-07-30T20:33:01.142Z,3.55
2022-07-30T20:38:12.954Z,5.00
2022-07-30T20:40:49.128Z,2.75
2022-07-30T20:46:02.818Z,4.80
2022-07-30T20:48:42.189Z,3.28
2022-07-30T20:51:12.874Z,6.25
2022-07-30T20:53:45.238Z,3.72
2022-07-30T20:56:14.892Z,6.82
2022-07-30T20:58:46.069Z,2.92
2022-07-30T21:01:18.062Z,7.78
2022-07-30T21:04:06.169Z,8.60
2022-07-30T21:09:52.140Z,3.70
2022-07-30T21:18:33.081Z,2.35
2022-07-30T21:21:05.088Z,4.63
2022-07-30T21:26:23.409Z,6.47
2022-07-30T21:32:14.359Z,3.95
2022-07-30T21:38:05.587Z,2.72
2022-07-30T21:40:39.329Z,2.95
2022-07-30T21:43:10.105Z,8.07
2022-07-30T21:45:40.362Z,2.90
2022-07-30T21:48:13.059Z,2.60
2022-07-30T21:50:42.904Z,2.08
2022-07-30T22:05:47.355Z,3.85
2022-07-30T22:08:17.906Z,4.93
2022-07-30T22:10:49.170Z,3.35
2022-07-30T22:13:31.396Z,1.52
2022-07-30T22:16:04.976Z,2.92
2022-07-30T22:18:42.422Z,3.58
2022-07-30T22:42:30.275Z,3.15
2022-07-30T22:45:08.546Z,1.55
2022-07-30T22:47:50.812Z,1.30
2022-07-30T22:50:33.502Z,1.92
2022-07-30T22:53:19.693Z,3.08
2022-07-30T22:56:00.395Z,0.85
2022-07-30T22:58:30.803Z,2.55
2022-07-30T23:01:01.888Z,2.70
2022-07-30T23:03:42.168Z,4.22
2022-07-30T23:06:16.893Z,4.32
2022-07-30T23:09:04.639Z,2.75
2022-07-30T23:11:38.813Z,2.08
2022-07-30T23:14:17.985Z,4.63
2022-07-30T23:17:08.579Z,2.50
2022-07-30T23:19:51.831Z,7.45
2022-07-30T23:22:22.231Z,3.88
2022-07-30T23:24:52.654Z,1.50
2022-07-30T23:27:24.373Z,2.20
2022-07-30T23:29:56.102Z,2.67
2022-07-30T23:32:24.738Z,3.42
2022-07-30T23:34:54.764Z,2.95
2022-07-30T23:37:26.775Z,2.55
2022-07-30T23:40:01.358Z,4.85
2022-07-30T23:42:30.843Z,3.63
2022-07-30T23:44:58.759Z,3.58
2022-07-30T23:47:35.341Z,1.00
2022-07-30T23:50:22.432Z,2.72
2022-07-30T23:52:50.038Z,3.20
2022-07-30T23:55:18.911Z,3.45
2022-07-30T23:57:47.198Z,4.03
